Terminal Aerodrome Forecast
Issued by NWS

Current Version | Previous Version | Graphics & Text | Print | Product List | Glossary On
Versions: 1 2 3 4 5 6 7 8 9 10 11 12 13 14 15 16 17 18 19
805
FTUS41 KILN 221435 AAB
TAFLCK
TAF AMD
KLCK 221435Z 2215/2312 08003KT 5SM BR SCT002 BKN080
     FM221600 08003KT P6SM BKN080
     FM222200 05009KT P6SM VCSH OVC080
     FM230300 06008KT 3SM -SHRA OVC015
      AMD NOT SKED=

USA.gov is the U.S. government's official web portal to all federal, state and local government web resources and services.